Time;durP1;ratioP1;P1;durP2;ratioP2;P2;SDS_P1;SDS_P2;PMS_P1;PMS_P2;Temp;Humidity;BMP_temperature;BMP_pressure;BME280_temperature;BME280_humidity;BME280_pressure;Samples;Min_cycle;Max_cycle;Signal;HPM_P1;HPM_P2
2021/07/31 00:00:27;;;;;;;8.40;6.05;;;;;;;15.25;62.58;99369.30;154095;1101;103467;-82
2021/07/31 00:03:30;;;;;;;8.70;5.73;;;;;;;15.17;63.00;99385.63;154173;1093;103109;-82
2021/07/31 00:06:33;;;;;;;11.23;6.10;;;;;;;15.11;62.93;99386.45;154096;1093;103157;-82
2021/07/31 00:09:35;;;;;;;7.90;5.05;;;;;;;15.11;63.08;99381.08;154089;1093;103100;-82
2021/07/31 00:12:39;;;;;;;7.30;5.80;;;;;;;15.05;63.25;99376.50;154056;1093;103125;-82
2021/07/31 00:15:42;;;;;;;8.43;5.90;;;;;;;15.09;62.95;99375.91;154072;1101;103195;-82
2021/07/31 00:18:44;;;;;;;9.30;6.43;;;;;;;15.02;63.28;99377.73;154157;1093;103148;-82
2021/07/31 00:21:47;;;;;;;8.90;6.10;;;;;;;15.03;63.27;99389.30;154075;1101;103215;-82
2021/07/31 00:24:50;;;;;;;9.67;7.23;;;;;;;14.91;63.21;99381.02;154152;1093;103192;-82
2021/07/31 00:27:53;;;;;;;9.08;6.60;;;;;;;14.95;63.43;99371.52;154076;1101;103195;-82
2021/07/31 00:30:56;;;;;;;7.83;5.30;;;;;;;14.83;63.76;99360.55;154065;1101;103125;-80
2021/07/31 00:33:58;;;;;;;6.90;5.33;;;;;;;14.83;63.74;99363.23;153977;1093;103259;-83
2021/07/31 00:37:01;;;;;;;11.37;6.23;;;;;;;14.90;63.79;99366.77;154120;1101;103215;-84
2021/07/31 00:40:05;;;;;;;9.73;6.77;;;;;;;14.95;63.48;99366.14;154092;1101;103192;-83
2021/07/31 00:43:09;;;;;;;11.33;6.63;;;;;;;14.90;63.76;99360.58;154052;1093;103260;-83
2021/07/31 00:46:13;;;;;;;12.43;7.20;;;;;;;14.79;63.69;99361.98;154113;1093;103128;-82
2021/07/31 00:49:16;;;;;;;10.50;7.23;;;;;;;14.72;64.16;99361.13;154130;1094;103270;-81
2021/07/31 00:52:19;;;;;;;11.00;7.40;;;;;;;14.66;64.26;99364.63;154063;1093;103250;-82
2021/07/31 00:55:25;;;;;;;10.20;6.93;;;;;;;14.58;64.48;99360.27;154055;1101;103183;-78
2021/07/31 00:58:28;;;;;;;8.90;6.47;;;;;;;14.61;64.35;99369.80;154034;1101;103218;-78
2021/07/31 01:01:37;;;;;;;11.30;6.80;;;;;;;14.58;64.34;99365.63;154070;1093;103126;-81
2021/07/31 01:04:40;;;;;;;10.47;6.53;;;;;;;14.71;64.23;99364.86;154129;1094;103269;-78
2021/07/31 01:07:43;;;;;;;10.15;6.75;;;;;;;14.69;64.33;99377.66;154131;1093;103122;-81
2021/07/31 01:10:46;;;;;;;8.70;6.40;;;;;;;14.57;64.40;99377.41;153939;1093;103125;-81
2021/07/31 01:13:50;;;;;;;9.97;6.93;;;;;;;14.52;64.65;99369.91;154064;1093;103157;-82
2021/07/31 01:16:55;;;;;;;11.30;6.53;;;;;;;14.52;64.79;99369.09;154137;1093;103110;-79
2021/07/31 01:19:58;;;;;;;8.60;5.95;;;;;;;14.49;64.65;99362.28;154509;1098;103262;-86
2021/07/31 01:23:02;;;;;;;8.87;5.80;;;;;;;14.42;64.74;99361.41;154258;1093;103141;-84
2021/07/31 01:26:05;;;;;;;10.13;6.80;;;;;;;14.36;64.92;99358.69;154417;1093;103207;-83
2021/07/31 01:29:10;;;;;;;8.60;6.73;;;;;;;14.40;64.98;99352.73;154772;1093;103123;-85
2021/07/31 01:32:13;;;;;;;9.08;6.28;;;;;;;14.31;64.95;99356.61;154405;1098;103289;-84
2021/07/31 01:35:17;;;;;;;9.15;6.50;;;;;;;14.19;65.24;99348.30;154137;1094;103342;-85
2021/07/31 01:38:20;;;;;;;8.90;6.55;;;;;;;14.16;65.54;99345.19;154119;1100;103240;-86
2021/07/31 01:41:23;;;;;;;8.93;6.00;;;;;;;14.30;65.39;99347.75;154284;1094;103095;-87
2021/07/31 01:44:26;;;;;;;8.73;6.23;;;;;;;14.37;65.38;99346.94;154078;1100;103119;-87
2021/07/31 01:47:29;;;;;;;9.63;6.13;;;;;;;14.40;65.52;99344.69;154300;1098;103230;-86
2021/07/31 01:50:34;;;;;;;8.90;6.48;;;;;;;14.38;65.57;99346.75;154151;1093;103369;-82
2021/07/31 01:53:37;;;;;;;7.47;5.70;;;;;;;14.34;65.61;99354.36;154769;1093;103335;-82
2021/07/31 01:56:41;;;;;;;9.37;5.97;;;;;;;14.26;65.40;99351.01;153963;1101;103327;-82
2021/07/31 01:59:44;;;;;;;9.23;6.07;;;;;;;14.25;65.75;99349.37;154113;1094;103124;-81
2021/07/31 02:02:48;;;;;;;9.40;5.63;;;;;;;14.28;65.59;99348.95;154700;1093;103143;-80
2021/07/31 02:05:52;;;;;;;9.07;6.23;;;;;;;14.25;65.67;99350.19;154663;1093;103109;-80
2021/07/31 02:08:57;;;;;;;8.30;6.20;;;;;;;14.22;65.71;99352.44;154102;1093;103148;-83
2021/07/31 02:12:00;;;;;;;8.18;6.35;;;;;;;14.23;65.95;99346.05;154136;1093;103178;-83
2021/07/31 02:15:05;;;;;;;7.57;6.20;;;;;;;14.19;65.85;99347.48;154707;1093;103109;-83
2021/07/31 02:18:09;;;;;;;10.20;6.70;;;;;;;14.14;65.86;99342.70;154066;1093;103560;-80
2021/07/31 02:21:12;;;;;;;7.35;6.30;;;;;;;14.07;66.18;99342.67;154012;1100;103196;-81
2021/07/31 02:24:34;;;;;;;10.57;6.33;;;;;;;14.01;65.90;99337.26;154609;1094;103195;-80
2021/07/31 02:27:55;;;;;;;7.58;5.78;;;;;;;14.02;66.21;99328.20;154067;1100;103577;-81
2021/07/31 02:30:58;;;;;;;9.50;6.00;;;;;;;13.97;66.37;99330.64;154557;1093;103195;-82
2021/07/31 02:34:01;;;;;;;7.78;5.80;;;;;;;13.94;66.29;99339.92;154071;1094;103194;-83
2021/07/31 02:37:06;;;;;;;8.03;6.20;;;;;;;13.89;66.26;99343.17;154150;1093;103136;-82
2021/07/31 02:40:12;;;;;;;11.20;6.33;;;;;;;13.89;66.43;99339.67;154167;1094;103198;-82
2021/07/31 02:43:15;;;;;;;10.83;6.47;;;;;;;13.93;66.43;99335.56;154135;1093;103149;-84
2021/07/31 02:46:21;;;;;;;9.67;6.17;;;;;;;13.94;66.61;99331.88;154635;1093;103151;-82
2021/07/31 02:49:24;;;;;;;9.48;6.15;;;;;;;14.02;66.56;99337.07;154099;1093;103196;-80
2021/07/31 02:52:28;;;;;;;7.63;5.95;;;;;;;14.04;66.63;99332.33;154680;1093;103286;-79
2021/07/31 02:55:34;;;;;;;9.80;5.85;;;;;;;14.10;66.58;99336.08;154108;1093;103144;-81
2021/07/31 02:58:37;;;;;;;10.17;6.20;;;;;;;14.09;66.45;99339.80;154106;1100;103473;-81
2021/07/31 03:01:40;;;;;;;8.63;6.07;;;;;;;14.02;66.45;99339.75;154748;1093;103109;-81
2021/07/31 03:04:43;;;;;;;10.67;6.10;;;;;;;13.99;66.79;99340.16;154124;1093;103096;-82
2021/07/31 03:07:56;;;;;;;8.63;5.45;;;;;;;13.98;66.54;99343.86;154700;1093;103260;-83
2021/07/31 03:11:02;;;;;;;8.27;5.37;;;;;;;13.92;66.51;99339.29;154129;1093;103128;-80
2021/07/31 03:14:06;;;;;;;7.57;5.83;;;;;;;13.89;66.86;99335.13;154871;1098;103135;-82
2021/07/31 03:17:12;;;;;;;8.63;5.55;;;;;;;13.93;66.94;99332.88;154037;1100;103125;-82
2021/07/31 03:20:16;;;;;;;9.60;5.63;;;;;;;13.91;66.76;99333.11;154714;1093;103536;-82
2021/07/31 03:23:24;;;;;;;6.90;5.93;;;;;;;13.97;66.82;99331.45;154127;1093;103256;-85
2021/07/31 03:26:27;;;;;;;9.00;6.23;;;;;;;14.03;67.20;99322.64;154885;1098;103541;-82
2021/07/31 03:29:33;;;;;;;7.03;5.80;;;;;;;14.10;67.09;99320.80;155277;1098;103144;-84
2021/07/31 03:32:37;;;;;;;7.23;5.57;;;;;;;14.21;66.89;99321.28;154162;1101;103231;-87
2021/07/31 03:35:41;;;;;;;6.80;5.30;;;;;;;14.28;67.37;99322.12;154110;1093;103027;-82
2021/07/31 03:39:04;;;;;;;8.37;5.77;;;;;;;14.33;67.32;99325.04;154668;1093;103280;-83
2021/07/31 03:42:10;;;;;;;8.50;6.20;;;;;;;14.39;67.48;99329.59;154079;1093;103133;-82
2021/07/31 03:45:15;;;;;;;7.33;5.80;;;;;;;14.38;68.31;99325.27;154730;1098;103109;-86
2021/07/31 03:48:18;;;;;;;8.18;5.30;;;;;;;14.82;69.27;99318.63;154114;1100;103192;-85
2021/07/31 03:51:22;;;;;;;6.47;4.57;;;;;;;15.41;69.21;99310.80;154164;1093;103243;-86
2021/07/31 03:54:25;;;;;;;8.30;4.37;;;;;;;16.02;69.00;99315.89;154677;1098;103258;-85
2021/07/31 03:57:29;;;;;;;8.90;5.43;;;;;;;16.60;68.45;99298.86;154177;1093;103138;-85
2021/07/31 04:00:32;;;;;;;9.15;5.30;;;;;;;17.15;67.78;99298.33;154068;1093;103184;-80
2021/07/31 04:03:37;;;;;;;5.50;5.00;;;;;;;17.61;67.16;99299.80;154551;1094;103188;-82
2021/07/31 04:06:39;;;;;;;8.50;5.30;;;;;;;17.97;66.36;99294.67;154753;1098;103107;-75
2021/07/31 04:10:11;;;;;;;7.33;5.23;;;;;;;18.03;65.63;99293.77;154573;1098;103255;-75
2021/07/31 04:13:32;;;;;;;7.27;4.97;;;;;;;18.02;65.77;99294.83;153975;1100;103192;-77
2021/07/31 04:16:47;;;;;;;6.27;5.40;;;;;;;17.97;65.73;99297.38;154004;1093;103128;-76
2021/07/31 04:19:51;;;;;;;6.70;5.13;;;;;;;17.99;65.91;99290.69;154542;1098;103112;-75
2021/07/31 04:22:55;;;;;;;5.20;4.58;;;;;;;18.07;65.67;99288.74;154219;1098;103174;-76
2021/07/31 04:26:14;;;;;;;6.35;4.35;;;;;;;18.19;65.77;99293.17;154002;1094;103339;-75
2021/07/31 04:29:17;;;;;;;5.25;4.60;;;;;;;18.28;65.71;99298.25;154014;1093;103168;-76
2021/07/31 04:32:20;;;;;;;5.47;4.53;;;;;;;18.36;65.42;99296.08;154538;1098;103189;-75
2021/07/31 04:35:22;;;;;;;6.60;4.90;;;;;;;18.52;65.55;99297.31;154573;1098;103554;-73
2021/07/31 04:38:25;;;;;;;6.03;4.90;;;;;;;18.69;65.48;99302.06;153986;1093;103206;-74
2021/07/31 04:41:28;;;;;;;5.33;4.83;;;;;;;18.85;65.47;99308.75;154114;1094;103239;-74
2021/07/31 04:44:31;;;;;;;7.07;5.10;;;;;;;19.02;65.42;99323.25;154014;1093;103097;-75
2021/07/31 04:47:38;;;;;;;8.47;5.57;;;;;;;19.17;65.42;99314.71;154588;1098;103084;-74
2021/07/31 04:50:40;;;;;;;8.03;5.47;;;;;;;19.39;65.38;99321.19;154034;1100;103119;-76
2021/07/31 04:53:43;;;;;;;7.40;5.57;;;;;;;19.62;65.74;99306.84;154575;1093;103128;-76
2021/07/31 04:56:46;;;;;;;5.47;4.77;;;;;;;19.89;65.34;99319.11;153940;1100;103240;-75
2021/07/31 04:59:49;;;;;;;5.50;5.00;;;;;;;20.12;64.93;99312.84;154602;1098;103122;-76
2021/07/31 05:02:51;;;;;;;6.60;5.50;;;;;;;20.32;64.69;99313.27;153935;1100;103187;-75
2021/07/31 05:05:55;;;;;;;8.60;5.57;;;;;;;20.52;64.63;99307.42;154587;1098;103196;-78
2021/07/31 05:08:57;;;;;;;7.07;6.37;;;;;;;20.66;64.56;99307.97;154585;1093;103208;-77
2021/07/31 05:12:00;;;;;;;9.10;5.55;;;;;;;20.78;64.66;99300.63;153987;1100;103269;-77
2021/07/31 05:15:05;;;;;;;7.03;5.97;;;;;;;20.90;64.43;99305.14;154626;1098;103184;-75
2021/07/31 05:18:08;;;;;;;9.83;6.90;;;;;;;21.02;64.23;99305.92;154007;1100;103197;-77
2021/07/31 05:21:11;;;;;;;6.90;5.97;;;;;;;20.99;64.17;99304.49;154368;1098;103137;-74
2021/07/31 05:24:14;;;;;;;6.63;5.37;;;;;;;20.98;64.31;99293.91;154088;1100;103145;-75
2021/07/31 05:27:17;;;;;;;6.60;5.33;;;;;;;21.07;64.38;99292.42;154027;1093;103205;-75
2021/07/31 05:30:20;;;;;;;7.90;5.40;;;;;;;21.17;64.32;99292.61;154104;1100;103100;-74
2021/07/31 05:33:23;;;;;;;7.17;5.20;;;;;;;21.26;64.03;99290.29;154054;1101;103133;-74
2021/07/31 05:36:26;;;;;;;6.30;5.03;;;;;;;21.36;63.78;99295.91;154069;1093;103160;-74
2021/07/31 05:39:33;;;;;;;8.17;5.57;;;;;;;21.46;63.89;99297.14;154014;1100;103147;-73
2021/07/31 05:42:36;;;;;;;9.10;5.50;;;;;;;21.62;63.83;99293.59;153960;1094;103254;-74
2021/07/31 05:45:39;;;;;;;8.40;6.35;;;;;;;21.75;63.66;99300.58;154028;1100;103645;-73
2021/07/31 05:48:41;;;;;;;7.47;5.57;;;;;;;21.83;63.67;99289.27;153987;1094;103115;-75
2021/07/31 05:51:44;;;;;;;7.30;5.87;;;;;;;21.91;63.08;99286.12;154025;1100;103133;-73
2021/07/31 05:54:47;;;;;;;8.55;5.50;;;;;;;21.96;63.52;99280.77;154067;1093;103235;-72
2021/07/31 05:57:50;;;;;;;7.00;5.50;;;;;;;22.00;62.97;99275.66;153954;1093;103185;-76
2021/07/31 06:00:53;;;;;;;7.63;5.50;;;;;;;22.04;62.92;99268.64;154001;1101;103138;-74
2021/07/31 06:03:56;;;;;;;6.73;5.90;;;;;;;22.13;62.83;99271.72;154111;1100;103194;-74
2021/07/31 06:07:00;;;;;;;7.77;5.50;;;;;;;22.24;62.53;99273.48;153945;1101;103471;-77
2021/07/31 06:10:04;;;;;;;6.60;5.30;;;;;;;22.29;62.33;99270.87;154057;1100;103193;-72
2021/07/31 06:13:06;;;;;;;8.00;5.73;;;;;;;22.31;62.22;99281.48;154083;1093;103265;-77
2021/07/31 06:16:10;;;;;;;7.73;5.10;;;;;;;22.31;62.10;99284.20;154451;1093;103126;-71
2021/07/31 06:19:12;;;;;;;7.67;5.00;;;;;;;22.30;62.25;99274.40;154197;1093;103564;-73
2021/07/31 06:22:15;;;;;;;5.93;4.77;;;;;;;22.34;62.06;99276.38;154116;1093;103193;-76
2021/07/31 06:25:18;;;;;;;6.60;5.23;;;;;;;22.42;62.51;99279.69;154092;1094;103110;-75
2021/07/31 06:28:21;;;;;;;6.13;5.13;;;;;;;22.52;62.16;99290.70;154148;1100;103231;-72
2021/07/31 06:31:24;;;;;;;5.17;4.60;;;;;;;22.57;61.93;99277.14;154053;1101;103214;-74
2021/07/31 06:34:27;;;;;;;7.80;4.63;;;;;;;22.66;61.67;99281.05;154036;1100;103192;-72
2021/07/31 06:37:29;;;;;;;8.60;4.87;;;;;;;22.73;61.60;99280.85;153990;1093;103163;-74
2021/07/31 06:40:32;;;;;;;6.00;4.93;;;;;;;22.81;61.48;99279.56;154202;1100;103097;-71
2021/07/31 06:43:35;;;;;;;5.80;4.87;;;;;;;22.93;61.72;99288.38;154257;1093;103197;-74
2021/07/31 06:46:38;;;;;;;6.87;4.10;;;;;;;23.06;61.43;99284.45;154112;1093;103264;-74
2021/07/31 06:49:41;;;;;;;5.80;4.10;;;;;;;23.24;61.48;99269.61;154242;1093;103202;-74
2021/07/31 06:52:43;;;;;;;5.65;4.10;;;;;;;23.40;61.05;99268.63;153941;1093;103133;-74
2021/07/31 06:55:46;;;;;;;4.60;4.07;;;;;;;23.52;60.71;99280.16;153993;1093;103135;-75
2021/07/31 06:58:49;;;;;;;7.20;4.10;;;;;;;23.62;60.96;99270.42;153952;1101;103247;-74
2021/07/31 07:01:51;;;;;;;5.60;3.60;;;;;;;23.67;60.13;99265.83;154026;1100;103208;-75
2021/07/31 07:04:54;;;;;;;4.87;3.53;;;;;;;23.70;59.73;99257.11;154092;1093;103191;-81
2021/07/31 07:07:57;;;;;;;5.63;3.37;;;;;;;23.68;59.77;99253.83;154151;1101;103129;-75
2021/07/31 07:11:00;;;;;;;5.57;3.60;;;;;;;23.69;59.54;99251.92;153986;1100;103230;-75
2021/07/31 07:14:03;;;;;;;4.43;3.67;;;;;;;23.71;58.52;99245.15;154182;1100;103189;-74
2021/07/31 07:17:07;;;;;;;5.80;3.40;;;;;;;23.76;58.94;99244.34;154007;1094;103113;-74
2021/07/31 07:20:10;;;;;;;4.33;3.47;;;;;;;23.88;58.38;99249.60;153968;1101;103415;-76
2021/07/31 07:23:13;;;;;;;5.05;3.65;;;;;;;24.08;58.65;99251.61;154039;1101;103487;-76
2021/07/31 07:26:16;;;;;;;6.03;3.60;;;;;;;24.27;58.07;99251.95;153997;1101;103218;-76
2021/07/31 07:29:19;;;;;;;5.53;4.03;;;;;;;24.41;58.25;99244.08;153995;1101;103230;-75
2021/07/31 07:32:22;;;;;;;4.83;3.83;;;;;;;24.54;57.62;99245.48;154331;1093;103191;-76
2021/07/31 07:35:24;;;;;;;7.13;3.80;;;;;;;24.64;57.82;99246.33;154624;1093;103477;-77
2021/07/31 07:38:27;;;;;;;5.87;3.77;;;;;;;24.75;58.08;99240.88;154087;1093;103239;-73
2021/07/31 07:41:30;;;;;;;5.13;3.70;;;;;;;24.86;57.30;99240.61;154133;1100;103221;-73
2021/07/31 07:44:34;;;;;;;6.05;3.90;;;;;;;24.96;57.09;99239.81;154126;1101;103190;-78
2021/07/31 07:47:37;;;;;;;4.27;3.70;;;;;;;25.07;57.22;99240.61;154065;1093;103585;-74
2021/07/31 07:50:40;;;;;;;5.03;3.77;;;;;;;25.18;57.29;99244.17;153999;1093;103204;-75
2021/07/31 07:53:43;;;;;;;4.63;3.50;;;;;;;25.30;56.94;99241.18;154024;1093;103221;-74
2021/07/31 07:56:45;;;;;;;5.47;3.80;;;;;;;25.40;56.96;99241.97;154001;1094;103215;-75
2021/07/31 07:59:49;;;;;;;5.17;3.67;;;;;;;25.52;56.88;99241.70;154077;1101;103128;-76
2021/07/31 08:02:51;;;;;;;4.47;3.80;;;;;;;25.64;56.92;99238.66;154668;1099;103228;-77
2021/07/31 08:05:54;;;;;;;7.37;4.13;;;;;;;25.78;56.26;99236.95;154415;1100;103294;-75
2021/07/31 08:08:57;;;;;;;4.67;4.00;;;;;;;25.94;55.88;99242.39;154087;1093;103110;-78
2021/07/31 08:12:00;;;;;;;5.67;3.80;;;;;;;26.10;55.46;99241.25;154040;1100;103193;-77
2021/07/31 08:15:02;;;;;;;4.57;3.90;;;;;;;26.23;55.07;99245.27;154230;1100;103579;-76
2021/07/31 08:18:05;;;;;;;6.47;3.90;;;;;;;26.35;54.84;99240.30;153944;1093;103138;-76
2021/07/31 08:21:08;;;;;;;6.27;4.30;;;;;;;26.48;55.19;99252.51;153961;1100;103138;-76
2021/07/31 08:24:11;;;;;;;6.37;3.87;;;;;;;26.53;54.76;99247.02;153939;1093;103178;-75
2021/07/31 08:27:13;;;;;;;7.23;3.90;;;;;;;26.59;54.55;99248.64;154020;1093;103104;-72
2021/07/31 08:30:16;;;;;;;5.07;3.90;;;;;;;26.62;54.94;99253.56;154077;1093;103560;-73
2021/07/31 08:33:19;;;;;;;5.07;4.30;;;;;;;26.69;54.54;99247.75;154066;1100;103192;-74
2021/07/31 08:36:22;;;;;;;7.27;4.20;;;;;;;26.78;54.45;99250.72;154391;1093;103132;-74
2021/07/31 08:39:24;;;;;;;4.50;3.80;;;;;;;26.85;53.83;99245.74;154621;1093;103329;-75
2021/07/31 08:42:27;;;;;;;5.97;4.30;;;;;;;26.98;53.44;99250.56;154701;1098;103369;-74
2021/07/31 08:45:30;;;;;;;5.83;4.60;;;;;;;27.09;53.41;99247.73;154014;1099;103112;-75
2021/07/31 08:48:34;;;;;;;4.30;3.90;;;;;;;27.24;53.25;99242.12;154022;1093;103136;-75
2021/07/31 08:51:38;;;;;;;4.60;4.07;;;;;;;27.37;53.14;99241.48;154601;1093;103118;-75
2021/07/31 08:54:41;;;;;;;6.13;3.90;;;;;;;27.52;52.57;99247.89;154601;1098;103170;-75
2021/07/31 08:57:44;;;;;;;6.37;4.23;;;;;;;27.64;52.15;99251.06;154575;1098;103110;-75
2021/07/31 09:00:47;;;;;;;6.20;4.25;;;;;;;27.73;52.35;99243.81;154471;1093;103194;-75
2021/07/31 09:03:53;;;;;;;4.20;3.80;;;;;;;27.83;51.96;99236.59;154504;1098;103208;-75
2021/07/31 09:06:56;;;;;;;6.03;4.80;;;;;;;27.90;52.07;99237.09;154013;1093;103542;-75
2021/07/31 09:10:23;;;;;;;5.53;4.13;;;;;;;27.94;51.15;99246.36;154001;1093;103280;-75
2021/07/31 09:13:28;;;;;;;4.77;3.70;;;;;;;27.93;51.60;99237.32;154237;1098;103248;-75
2021/07/31 09:16:35;;;;;;;6.08;3.80;;;;;;;27.99;51.79;99235.34;154219;1098;103197;-75
2021/07/31 09:19:45;;;;;;;5.17;4.27;;;;;;;28.11;50.97;99232.16;154618;1098;103122;-75
2021/07/31 09:22:52;;;;;;;;;;;;;;;28.23;51.00;99232.53;154100;1100;103101;-75
2021/07/31 09:26:00;;;;;;;7.10;4.50;;;;;;;28.25;51.32;99233.05;154113;1100;103135;-75
2021/07/31 09:29:06;;;;;;;6.43;4.87;;;;;;;28.20;50.81;99238.63;154333;1098;103276;-75
2021/07/31 09:32:09;;;;;;;6.08;4.58;;;;;;;28.05;50.51;99233.34;154011;1094;103122;-75
2021/07/31 09:35:23;;;;;;;5.47;4.40;;;;;;;28.00;50.96;99236.95;154270;1098;103097;-74
2021/07/31 09:38:35;;;;;;;6.87;4.43;;;;;;;28.02;50.38;99239.41;154432;1098;103151;-75
2021/07/31 09:41:39;;;;;;;4.78;4.28;;;;;;;28.05;50.57;99239.64;154309;1098;103198;-75
2021/07/31 09:44:47;;;;;;;8.43;4.70;;;;;;;28.09;50.55;99243.42;154340;1098;103193;-75
2021/07/31 09:48:00;;;;;;;8.58;4.95;;;;;;;28.13;50.98;99241.72;154511;1093;103136;-75
2021/07/31 09:51:03;;;;;;;6.20;5.30;;;;;;;28.11;50.65;99243.13;154102;1093;103225;-75
2021/07/31 09:54:09;;;;;;;7.37;5.70;;;;;;;28.07;50.65;99242.90;154336;1098;103130;-75
2021/07/31 09:57:13;;;;;;;6.97;5.10;;;;;;;28.04;50.92;99248.95;154051;1093;103554;-75
2021/07/31 10:00:17;;;;;;;8.90;5.73;;;;;;;27.95;50.37;99237.84;153979;1100;103283;-75
2021/07/31 10:03:20;;;;;;;6.20;5.33;;;;;;;27.81;50.31;99239.61;154023;1093;103188;-75
2021/07/31 10:06:26;;;;;;;6.68;5.55;;;;;;;27.62;50.77;99242.32;153983;1093;103216;-75
2021/07/31 10:09:29;;;;;;;8.17;5.80;;;;;;;27.41;50.57;99245.27;154002;1100;103204;-75
2021/07/31 10:12:34;;;;;;;7.10;5.80;;;;;;;27.22;50.47;99241.59;154018;1093;103258;-75
2021/07/31 10:15:37;;;;;;;7.18;5.85;;;;;;;27.01;50.92;99249.17;153960;1100;103227;-75
2021/07/31 10:18:39;;;;;;;7.13;5.63;;;;;;;26.84;51.36;99250.38;153999;1101;103151;-75
2021/07/31 10:21:52;;;;;;;8.07;6.20;;;;;;;26.69;51.04;99253.22;153991;1100;103142;-75
2021/07/31 10:25:07;;;;;;;8.13;6.03;;;;;;;26.58;50.88;99254.36;154009;1101;103110;-75
2021/07/31 10:28:28;;;;;;;8.13;6.13;;;;;;;26.44;50.82;99257.75;153973;1093;103195;-75
2021/07/31 10:31:33;;;;;;;6.78;6.05;;;;;;;26.39;51.28;99256.96;154027;1093;103107;-75
2021/07/31 10:34:50;;;;;;;8.78;5.65;;;;;;;26.41;52.04;99262.97;154056;1093;103566;-75
2021/07/31 10:37:54;;;;;;;9.63;6.17;;;;;;;26.42;52.27;99253.64;154014;1100;103091;-75
2021/07/31 10:40:56;;;;;;;8.13;6.37;;;;;;;26.39;51.80;99256.96;153977;1100;103197;-75
2021/07/31 10:44:10;;;;;;;6.20;5.60;;;;;;;26.37;51.41;99245.48;153985;1100;103161;-75
2021/07/31 10:47:40;;;;;;;7.73;6.17;;;;;;;26.41;51.21;99249.29;153978;1093;103516;-75
2021/07/31 10:50:43;;;;;;;8.28;6.25;;;;;;;26.48;51.47;99251.70;154087;1100;103160;-74
2021/07/31 10:53:51;;;;;;;6.90;6.20;;;;;;;26.56;50.97;99248.36;153958;1094;103566;-74
2021/07/31 10:56:58;;;;;;;9.78;6.45;;;;;;;26.69;50.97;99245.02;154149;1093;103125;-75
2021/07/31 11:00:22;;;;;;;6.93;6.00;;;;;;;26.84;50.90;99249.56;153988;1101;103168;-75
2021/07/31 11:03:43;;;;;;;7.00;5.97;;;;;;;26.93;50.63;99244.31;153957;1093;103278;-75
2021/07/31 11:07:02;;;;;;;;;;;;;;;27.08;50.94;99248.82;154034;1100;103130;-74
2021/07/31 11:10:30;;;;;;;5.17;4.67;;;;;;;27.26;50.80;99244.61;153943;1101;103129;-75
2021/07/31 11:13:54;;;;;;;9.30;5.47;;;;;;;27.40;50.08;99240.88;154001;1093;103129;-75
2021/07/31 11:17:17;;;;;;;5.98;5.33;;;;;;;27.52;50.15;99250.63;153949;1100;103234;-75
2021/07/31 11:20:28;;;;;;;5.75;5.10;;;;;;;27.65;50.53;99252.69;153962;1100;103224;-75
2021/07/31 11:23:31;;;;;;;6.15;5.08;;;;;;;27.72;50.08;99247.67;154003;1101;103129;-76
2021/07/31 11:26:49;;;;;;;6.15;5.35;;;;;;;27.74;49.60;99248.20;154022;1100;103125;-75
2021/07/31 11:29:55;;;;;;;5.73;5.03;;;;;;;27.76;49.70;99254.20;154012;1093;103522;-75
2021/07/31 11:33:11;;;;;;;6.93;5.13;;;;;;;27.77;49.45;99253.11;153957;1101;103149;-75
2021/07/31 11:36:14;;;;;;;8.00;5.15;;;;;;;27.88;49.47;99244.76;153955;1093;103263;-75
2021/07/31 11:39:18;;;;;;;7.63;4.90;;;;;;;28.02;49.69;99244.89;153974;1100;103189;-75
2021/07/31 11:42:23;;;;;;;6.45;4.80;;;;;;;28.14;49.74;99254.34;153964;1100;103191;-75
2021/07/31 11:45:27;;;;;;;9.23;4.90;;;;;;;28.24;49.30;99241.60;153991;1093;103187;-76
2021/07/31 11:48:29;;;;;;;6.58;5.20;;;;;;;28.41;49.16;99239.16;153981;1100;103208;-76
2021/07/31 11:51:33;;;;;;;5.93;4.97;;;;;;;28.57;49.26;99240.59;153918;1101;103186;-76
2021/07/31 11:54:39;;;;;;;7.10;5.30;;;;;;;28.64;49.23;99244.88;154037;1093;103122;-76
2021/07/31 11:57:42;;;;;;;6.88;6.05;;;;;;;28.74;49.19;99245.55;153992;1093;103130;-75
2021/07/31 12:00:45;;;;;;;6.97;5.93;;;;;;;28.85;49.05;99246.22;153948;1093;103128;-77
2021/07/31 12:03:50;;;;;;;7.30;5.43;;;;;;;28.83;49.03;99231.97;154310;1100;103601;-76
2021/07/31 12:06:53;;;;;;;9.10;5.77;;;;;;;28.84;48.76;99228.09;154007;1094;103260;-76
2021/07/31 12:10:00;;;;;;;6.60;5.90;;;;;;;28.80;48.88;99221.58;154028;1100;103213;-77
2021/07/31 12:13:09;;;;;;;6.47;5.53;;;;;;;28.68;48.61;99232.22;154063;1093;103239;-75
2021/07/31 12:16:12;;;;;;;7.33;5.70;;;;;;;28.66;48.86;99220.69;154055;1100;103136;-74
2021/07/31 12:19:15;;;;;;;8.40;5.50;;;;;;;28.64;47.94;99220.17;154239;1100;103340;-75
2021/07/31 12:22:20;;;;;;;6.23;5.50;;;;;;;28.63;48.48;99210.33;153995;1093;103266;-75
2021/07/31 12:25:24;;;;;;;7.20;5.47;;;;;;;28.62;48.43;99214.17;154058;1100;103609;-75
2021/07/31 12:28:38;;;;;;;7.05;5.73;;;;;;;28.63;48.59;99215.81;153968;1100;103192;-75
2021/07/31 12:31:41;;;;;;;5.98;5.38;;;;;;;28.75;48.99;99218.91;154048;1093;103112;-76
2021/07/31 12:34:44;;;;;;;7.67;5.50;;;;;;;28.87;48.41;99216.53;154036;1100;103227;-76
2021/07/31 12:37:48;;;;;;;6.33;5.40;;;;;;;29.04;48.17;99215.14;154026;1094;103190;-77
2021/07/31 12:40:54;;;;;;;6.23;5.63;;;;;;;29.17;48.31;99217.13;154055;1093;103112;-77
2021/07/31 12:43:57;;;;;;;6.47;5.40;;;;;;;29.21;47.85;99220.91;154040;1100;103141;-76
2021/07/31 12:47:00;;;;;;;5.67;5.17;;;;;;;29.22;47.99;99228.05;154013;1100;103192;-75
2021/07/31 12:50:03;;;;;;;7.40;5.03;;;;;;;29.27;47.82;99222.44;154013;1100;103292;-76
2021/07/31 12:53:06;;;;;;;6.30;5.70;;;;;;;29.29;47.89;99222.98;153985;1100;103289;-78
2021/07/31 12:56:09;;;;;;;5.20;4.60;;;;;;;29.27;47.18;99229.88;154053;1100;103199;-77
2021/07/31 12:59:12;;;;;;;4.80;4.10;;;;;;;29.21;46.68;99226.40;154002;1100;103123;-76
2021/07/31 13:02:14;;;;;;;4.37;3.73;;;;;;;29.15;46.05;99222.12;154025;1093;103200;-76
2021/07/31 13:05:17;;;;;;;4.77;3.80;;;;;;;29.02;45.92;99229.16;154108;1100;104644;-79
2021/07/31 13:08:20;;;;;;;3.97;3.57;;;;;;;28.97;45.61;99230.08;153964;1100;103263;-79
2021/07/31 13:11:23;;;;;;;6.70;4.10;;;;;;;29.04;45.57;99232.42;154054;1100;103150;-76
2021/07/31 13:14:27;;;;;;;4.45;4.00;;;;;;;29.08;46.08;99227.98;153954;1100;103077;-76
2021/07/31 13:17:30;;;;;;;5.00;3.60;;;;;;;29.10;45.70;99230.41;153974;1094;103112;-76
2021/07/31 13:20:35;;;;;;;3.90;3.50;;;;;;;29.14;45.15;99239.73;153987;1093;103291;-77
2021/07/31 13:23:38;;;;;;;6.20;3.63;;;;;;;29.21;45.16;99242.08;154024;1100;103736;-78
2021/07/31 13:26:41;;;;;;;4.97;3.77;;;;;;;29.26;45.02;99234.56;154018;1100;103151;-78
2021/07/31 13:29:44;;;;;;;4.00;3.60;;;;;;;29.19;44.57;99242.37;153982;1100;103191;-75
2021/07/31 13:32:46;;;;;;;4.03;3.63;;;;;;;29.17;45.60;99234.42;154096;1099;103189;-78
2021/07/31 13:35:50;;;;;;;4.10;3.67;;;;;;;29.26;44.96;99241.99;153979;1100;103290;-77
2021/07/31 13:38:59;;;;;;;4.17;3.60;;;;;;;29.28;44.84;99246.06;154152;1100;103263;-76
2021/07/31 13:42:02;;;;;;;4.73;3.73;;;;;;;29.34;44.94;99238.55;154092;1100;103200;-73
2021/07/31 13:45:08;;;;;;;7.10;3.80;;;;;;;29.37;44.52;99235.20;153963;1100;103186;-75
2021/07/31 13:48:10;;;;;;;5.97;3.50;;;;;;;29.55;44.19;99231.54;153964;1100;103130;-76
2021/07/31 13:51:13;;;;;;;4.50;3.60;;;;;;;29.61;43.99;99228.70;153948;1093;103270;-76
2021/07/31 13:54:16;;;;;;;4.00;3.47;;;;;;;29.62;43.08;99227.56;154123;1094;103093;-76
2021/07/31 13:57:19;;;;;;;4.37;3.77;;;;;;;29.58;43.98;99237.55;154064;1100;103192;-75
2021/07/31 14:00:22;;;;;;;4.45;3.75;;;;;;;29.50;43.52;99236.31;154039;1094;103130;-75
2021/07/31 14:03:25;;;;;;;4.67;3.33;;;;;;;29.41;43.69;99235.38;155136;1100;103121;-75
2021/07/31 14:06:28;;;;;;;4.43;3.50;;;;;;;29.47;43.97;99234.20;154256;1098;103195;-72
2021/07/31 14:09:31;;;;;;;4.70;3.80;;;;;;;29.43;43.25;99217.49;154491;1100;103263;-76